Time;durP1;ratioP1;P1;durP2;ratioP2;P2;SDS_P1;SDS_P2;PMS_P1;PMS_P2;Temp;Humidity;BMP_temperature;BMP_pressure;BME280_temperature;BME280_humidity;BME280_pressure;Samples;Min_cycle;Max_cycle;Signal;HPM_P1;HPM_P2
2022/10/17 00:00:49;;;;;;;7.80;7.00;;;15.40;99.90;;;;;;5040574;28;20497;-64
2022/10/17 00:03:17;;;;;;;7.43;6.70;;;15.40;99.90;;;;;;5039722;28;20769;-64
2022/10/17 00:05:48;;;;;;;7.03;6.07;;;15.40;99.90;;;;;;5040466;28;20452;-64
2022/10/17 00:08:17;;;;;;;10.20;7.40;;;15.50;99.90;;;;;;5039649;28;20488;-64
2022/10/17 00:10:44;;;;;;;8.73;7.53;;;15.60;99.90;;;;;;5039919;28;20510;-64
2022/10/17 00:13:15;;;;;;;7.17;6.40;;;15.50;99.90;;;;;;5040274;28;20569;-64
2022/10/17 00:15:44;;;;;;;8.73;7.03;;;15.60;99.90;;;;;;5039721;28;20797;-64
2022/10/17 00:18:13;;;;;;;7.33;6.53;;;15.50;99.90;;;;;;5039630;28;20463;-64
2022/10/17 00:20:40;;;;;;;10.50;7.00;;;15.60;99.90;;;;;;5039602;28;20467;-64
2022/10/17 00:23:11;;;;;;;26.50;8.50;;;15.70;99.90;;;;;;5039808;28;20509;-64
2022/10/17 00:25:41;;;;;;;8.33;7.27;;;15.80;99.90;;;;;;5040255;28;20459;-64
2022/10/17 00:28:09;;;;;;;8.73;7.30;;;15.60;99.90;;;;;;5039086;28;20463;-64
2022/10/17 00:30:37;;;;;;;7.67;6.97;;;15.60;99.90;;;;;;5039388;28;20462;-64
2022/10/17 00:33:04;;;;;;;7.53;6.80;;;15.60;99.90;;;;;;5039240;28;20460;-64
2022/10/17 00:35:32;;;;;;;7.10;6.50;;;15.60;99.90;;;;;;5039690;28;20866;-64
2022/10/17 00:37:59;;;;;;;7.63;6.93;;;15.50;99.90;;;;;;5039141;28;20463;-64
2022/10/17 00:40:28;;;;;;;10.83;7.13;;;15.40;99.90;;;;;;5039541;28;20466;-64
2022/10/17 00:42:55;;;;;;;7.20;6.53;;;15.40;99.90;;;;;;5039481;28;20489;-64
2022/10/17 00:45:25;;;;;;;9.43;7.13;;;15.60;99.90;;;;;;5039757;28;20561;-64
2022/10/17 00:48:07;;;;;;;7.27;6.17;;;15.60;99.90;;;;;;5039042;28;20444;-64
2022/10/17 00:50:36;;;;;;;9.73;7.00;;;15.60;99.90;;;;;;5039161;28;20775;-64
2022/10/17 00:53:05;;;;;;;7.40;6.80;;;15.70;99.90;;;;;;5038064;28;20459;-64
2022/10/17 00:55:37;;;;;;;6.90;6.30;;;15.80;99.90;;;;;;5039127;28;20766;-63
2022/10/17 00:58:06;;;;;;;7.50;6.53;;;15.90;99.90;;;;;;5038620;28;20473;-64
2022/10/17 01:00:35;;;;;;;7.53;6.73;;;15.90;99.90;;;;;;5038602;28;20509;-64
2022/10/17 01:03:03;;;;;;;7.20;6.27;;;15.90;99.90;;;;;;5039139;28;20547;-64
2022/10/17 01:05:30;;;;;;;8.03;6.57;;;16.00;99.90;;;;;;5038980;28;20459;-64
2022/10/17 01:07:58;;;;;;;6.70;6.10;;;16.00;99.90;;;;;;5038662;28;20898;-65
2022/10/17 01:10:31;;;;;;;7.47;5.80;;;16.10;99.90;;;;;;5038944;28;20445;-64
2022/10/17 01:13:10;;;;;;;6.90;5.87;;;16.10;99.90;;;;;;5038741;28;20873;-64
2022/10/17 01:15:48;;;;;;;7.23;6.53;;;16.10;99.90;;;;;;5038574;28;20501;-64
2022/10/17 01:18:29;;;;;;;7.27;5.10;;;16.20;99.90;;;;;;5038701;28;20457;-64
2022/10/17 01:21:13;;;;;;;8.87;6.40;;;16.10;99.90;;;;;;5038477;28;20444;-64
2022/10/17 01:24:22;;;;;;;8.73;7.33;;;16.20;99.90;;;;;;5038552;28;20491;-64
2022/10/17 01:27:13;;;;;;;8.27;5.90;;;16.10;99.90;;;;;;5013025;28;20537;-64
2022/10/17 01:30:04;;;;;;;6.50;5.90;;;15.90;99.90;;;;;;5015790;28;20438;-63
2022/10/17 01:32:37;;;;;;;8.30;6.57;;;16.00;99.90;;;;;;5038299;28;20455;-64
2022/10/17 01:35:14;;;;;;;11.63;6.77;;;16.00;99.90;;;;;;5037854;28;20471;-64
2022/10/17 01:37:46;;;;;;;8.27;6.53;;;15.90;99.90;;;;;;5038407;28;20468;-64
2022/10/17 01:40:20;;;;;;;6.83;6.20;;;15.80;99.90;;;;;;5038477;28;20721;-64
2022/10/17 01:46:16;;;;;;;6.70;6.00;;;15.80;99.90;;;;;;5037648;28;20453;-64
2022/10/17 01:48:49;;;;;;;7.73;6.00;;;15.80;99.90;;;;;;5037998;28;20470;-63
2022/10/17 01:51:20;;;;;;;9.47;6.07;;;15.90;99.90;;;;;;5037985;28;20442;-63
2022/10/17 01:53:52;;;;;;;7.60;6.47;;;15.80;99.90;;;;;;5038088;28;20459;-64
2022/10/17 01:56:24;;;;;;;6.10;5.50;;;15.80;99.90;;;;;;5037760;28;20926;-63
2022/10/17 01:58:53;;;;;;;6.60;5.90;;;16.00;99.90;;;;;;5037820;28;20465;-63
2022/10/17 02:01:22;;;;;;;10.63;5.80;;;16.00;99.90;;;;;;5038169;28;20437;-64
2022/10/17 02:03:52;;;;;;;8.50;6.27;;;15.90;99.90;;;;;;5038021;28;20955;-63
2022/10/17 02:06:19;;;;;;;7.70;6.70;;;15.90;99.90;;;;;;5037376;28;20471;-63
2022/10/17 02:08:48;;;;;;;6.80;6.00;;;15.80;99.90;;;;;;5037618;28;20952;-64
2022/10/17 02:11:18;;;;;;;7.30;6.60;;;15.80;99.90;;;;;;5038040;28;20728;-63
2022/10/17 02:14:05;;;;;;;8.40;5.63;;;15.60;99.90;;;;;;5037672;28;20459;-64
2022/10/17 02:16:37;;;;;;;6.70;6.00;;;15.40;99.90;;;;;;5037503;28;20793;-63
2022/10/17 02:19:30;;;;;;;8.03;6.30;;;15.40;99.90;;;;;;5037720;28;20524;-63
2022/10/17 02:22:13;;;;;;;11.40;6.47;;;15.40;99.90;;;;;;5037319;28;20910;-63
2022/10/17 02:24:51;;;;;;;9.77;6.50;;;15.40;99.90;;;;;;5037437;28;20779;-63
2022/10/17 02:27:32;;;;;;;7.00;6.40;;;15.30;99.90;;;;;;5037759;28;20459;-63
2022/10/17 02:30:04;;;;;;;9.50;5.93;;;15.30;99.90;;;;;;5036910;28;20444;-63
2022/10/17 02:32:38;;;;;;;7.30;6.70;;;15.40;99.90;;;;;;5037202;28;20441;-63
2022/10/17 02:35:11;;;;;;;7.10;6.07;;;15.40;99.90;;;;;;5037508;28;20576;-63
2022/10/17 02:37:40;;;;;;;11.00;5.70;;;15.30;99.90;;;;;;5037450;28;20463;-64
2022/10/17 02:40:10;;;;;;;9.83;8.27;;;15.20;99.90;;;;;;5037466;28;20459;-63
2022/10/17 02:42:38;;;;;;;6.23;5.73;;;15.20;99.90;;;;;;5036411;28;20802;-63
2022/10/17 02:45:07;;;;;;;15.20;7.10;;;15.20;99.90;;;;;;5037477;28;20442;-63
2022/10/17 02:47:40;;;;;;;7.60;6.67;;;15.30;99.90;;;;;;5037209;28;20498;-63
2022/10/17 02:50:10;;;;;;;7.30;6.60;;;15.40;99.90;;;;;;5036980;28;20881;-63
2022/10/17 02:52:40;;;;;;;7.20;6.50;;;15.50;99.90;;;;;;5037174;28;20888;-63
2022/10/17 02:55:16;;;;;;;7.00;6.30;;;15.40;99.90;;;;;;5037013;28;20457;-63
2022/10/17 02:57:48;;;;;;;9.77;5.90;;;15.40;99.90;;;;;;5036668;28;20753;-63
2022/10/17 03:00:20;;;;;;;8.57;6.57;;;15.50;99.90;;;;;;5036752;28;20463;-62
2022/10/17 03:02:49;;;;;;;6.70;5.63;;;15.60;99.90;;;;;;5037016;28;20537;-63
2022/10/17 03:05:21;;;;;;;8.30;6.10;;;15.70;99.90;;;;;;5037087;28;20449;-63
2022/10/17 03:07:48;;;;;;;7.70;6.20;;;15.80;99.90;;;;;;5037405;28;20505;-64
2022/10/17 03:10:18;;;;;;;6.23;5.63;;;15.80;99.90;;;;;;5037112;28;20956;-63
2022/10/17 03:12:48;;;;;;;6.30;5.70;;;15.90;99.90;;;;;;5037055;28;20991;-63
2022/10/17 03:15:19;;;;;;;5.97;5.33;;;15.90;99.90;;;;;;5036806;28;20491;-63
2022/10/17 03:17:46;;;;;;;6.30;5.70;;;15.90;99.90;;;;;;5037278;28;20473;-63
2022/10/17 03:20:13;;;;;;;6.93;5.93;;;15.90;99.90;;;;;;5036628;28;20467;-63
2022/10/17 03:22:42;;;;;;;12.10;7.00;;;15.80;99.90;;;;;;5036705;28;20502;-63
2022/10/17 03:25:09;;;;;;;8.10;5.27;;;15.80;99.90;;;;;;5036678;28;20463;-63
2022/10/17 03:27:39;;;;;;;6.13;5.63;;;15.80;99.90;;;;;;5039210;28;20439;-63
2022/10/17 03:30:08;;;;;;;7.13;5.70;;;15.70;99.90;;;;;;5056712;28;20466;-63
2022/10/17 03:32:37;;;;;;;6.73;6.13;;;15.80;99.90;;;;;;5056488;28;20466;-63
2022/10/17 03:35:05;;;;;;;6.07;5.47;;;15.70;99.90;;;;;;5056122;28;20468;-63
2022/10/17 03:37:32;;;;;;;10.00;6.07;;;15.80;99.90;;;;;;5056197;28;20747;-63
2022/10/17 03:40:01;;;;;;;7.00;5.47;;;15.80;99.90;;;;;;5056148;28;20470;-63
2022/10/17 03:42:31;;;;;;;6.30;5.70;;;15.80;99.90;;;;;;5056435;28;20469;-63
2022/10/17 03:44:58;;;;;;;6.33;5.73;;;15.80;99.90;;;;;;5056225;28;20475;-63
2022/10/17 03:47:28;;;;;;;6.70;6.00;;;15.70;99.90;;;;;;5056761;28;20462;-63
2022/10/17 03:49:55;;;;;;;7.10;6.40;;;15.80;99.90;;;;;;5056603;28;20480;-62
2022/10/17 03:52:22;;;;;;;6.93;5.67;;;15.70;99.90;;;;;;5056317;28;20484;-63
2022/10/17 03:54:50;;;;;;;7.37;5.63;;;15.80;99.90;;;;;;5060664;28;20428;-63
2022/10/17 03:57:19;;;;;;;7.70;6.50;;;15.90;99.90;;;;;;5060359;28;20462;-63
2022/10/17 03:59:46;;;;;;;6.07;5.47;;;15.90;99.90;;;;;;5060223;28;20486;-63
2022/10/17 04:02:13;;;;;;;7.90;5.60;;;15.90;99.90;;;;;;5059922;28;20517;-63
2022/10/17 04:04:40;;;;;;;6.33;5.73;;;15.90;99.90;;;;;;5058725;28;20519;-63
2022/10/17 04:07:07;;;;;;;7.40;5.97;;;15.80;99.90;;;;;;5059940;28;20805;-63
2022/10/17 04:09:34;;;;;;;9.83;6.80;;;15.90;99.90;;;;;;5059999;28;20772;-63
2022/10/17 04:12:01;;;;;;;9.07;6.40;;;15.90;99.90;;;;;;5059436;28;20549;-63
2022/10/17 04:14:30;;;;;;;6.10;5.10;;;15.90;99.90;;;;;;5059409;28;20722;-63
2022/10/17 04:16:57;;;;;;;7.50;6.10;;;16.00;99.90;;;;;;5059522;28;20466;-63
2022/10/17 04:19:24;;;;;;;8.37;5.73;;;16.00;99.90;;;;;;5059128;28;20462;-63
2022/10/17 04:21:52;;;;;;;8.00;6.80;;;15.90;99.90;;;;;;5058858;28;20466;-63
2022/10/17 04:24:19;;;;;;;5.40;4.90;;;15.90;99.90;;;;;;5059396;28;20919;-63
2022/10/17 04:26:50;;;;;;;6.93;5.70;;;15.90;99.90;;;;;;5059226;28;20731;-63
2022/10/17 04:29:17;;;;;;;7.03;5.77;;;15.80;99.90;;;;;;5060140;28;20466;-63
2022/10/17 04:31:46;;;;;;;9.23;6.60;;;15.80;99.90;;;;;;5059574;28;20484;-63
2022/10/17 04:34:14;;;;;;;7.73;5.20;;;15.90;99.90;;;;;;5058867;28;20458;-62
2022/10/17 04:36:41;;;;;;;9.63;5.50;;;15.90;99.90;;;;;;5059421;28;20473;-63
2022/10/17 04:39:08;;;;;;;6.30;5.70;;;15.80;99.90;;;;;;5059460;28;20465;-61
2022/10/17 04:41:38;;;;;;;8.43;5.47;;;15.80;99.90;;;;;;5059322;28;20474;-63
2022/10/17 04:44:05;;;;;;;6.10;5.43;;;15.80;99.90;;;;;;5058809;28;20498;-60
2022/10/17 04:46:34;;;;;;;6.70;6.03;;;15.80;99.90;;;;;;5059475;28;20439;-62
2022/10/17 04:49:06;;;;;;;7.47;6.30;;;15.80;99.90;;;;;;5059627;28;20838;-63
2022/10/17 04:51:36;;;;;;;8.00;5.97;;;15.70;99.90;;;;;;5059084;28;20466;-63
2022/10/17 04:54:03;;;;;;;6.20;5.60;;;15.80;99.90;;;;;;5058733;28;20462;-63
2022/10/17 04:56:30;;;;;;;5.70;5.10;;;15.70;99.90;;;;;;5058834;28;20878;-63
2022/10/17 04:58:58;;;;;;;8.97;6.20;;;15.70;99.90;;;;;;5058038;28;20910;-63
2022/10/17 05:01:26;;;;;;;7.50;6.37;;;15.60;99.90;;;;;;5057671;28;20769;-63
2022/10/17 05:03:54;;;;;;;10.30;5.33;;;15.60;99.90;;;;;;5056168;28;20506;-63
2022/10/17 05:06:26;;;;;;;7.20;6.50;;;15.70;99.90;;;;;;5055646;28;20504;-63
2022/10/17 05:08:57;;;;;;;6.90;5.80;;;15.60;99.90;;;;;;5056362;28;20462;-63
2022/10/17 05:11:27;;;;;;;8.23;5.70;;;15.60;99.90;;;;;;5057884;28;20494;-63
2022/10/17 05:13:57;;;;;;;6.80;5.93;;;15.60;99.90;;;;;;5057822;28;20462;-63
2022/10/17 05:16:24;;;;;;;10.40;5.83;;;15.60;99.90;;;;;;5056965;28;20766;-63
2022/10/17 05:18:53;;;;;;;15.43;6.93;;;15.50;99.90;;;;;;5056819;28;20464;-64
2022/10/17 05:21:21;;;;;;;9.87;6.07;;;15.60;99.90;;;;;;5057631;28;20839;-64
2022/10/17 05:23:49;;;;;;;7.33;6.60;;;15.60;99.90;;;;;;5057949;28;20465;-63
2022/10/17 05:26:19;;;;;;;7.40;5.50;;;15.60;99.90;;;;;;5057567;28;20437;-64
2022/10/17 05:28:46;;;;;;;31.00;6.90;;;15.70;99.90;;;;;;5057662;28;20465;-63
2022/10/17 05:31:13;;;;;;;13.90;6.70;;;15.70;99.90;;;;;;5057977;28;20469;-64
2022/10/17 05:33:41;;;;;;;7.60;5.70;;;15.70;99.90;;;;;;5058337;28;20458;-63
2022/10/17 05:36:09;;;;;;;6.33;5.70;;;15.70;99.90;;;;;;5057702;28;20537;-64
2022/10/17 05:38:36;;;;;;;6.57;5.97;;;15.70;99.90;;;;;;5058095;28;20489;-64
2022/10/17 05:41:06;;;;;;;12.33;6.30;;;15.70;99.90;;;;;;5058008;28;20535;-64
2022/10/17 05:43:34;;;;;;;8.10;6.20;;;15.60;99.90;;;;;;5058097;28;20536;-64
2022/10/17 05:46:06;;;;;;;8.43;6.90;;;15.60;99.90;;;;;;5057041;28;20565;-64
2022/10/17 05:48:34;;;;;;;6.33;5.70;;;15.70;99.90;;;;;;5038150;28;20863;-64
2022/10/17 05:51:02;;;;;;;9.20;6.90;;;15.60;99.90;;;;;;5038330;28;20649;-64
2022/10/17 05:53:31;;;;;;;6.60;5.83;;;15.70;99.90;;;;;;5037283;28;20448;-64
2022/10/17 05:56:01;;;;;;;7.60;5.60;;;15.70;99.90;;;;;;5037523;28;20492;-64
2022/10/17 05:58:29;;;;;;;9.87;5.70;;;15.70;93.50;;;;;;5037578;28;20460;-64
2022/10/17 06:01:00;;;;;;;12.47;7.20;;;15.80;34.80;;;;;;5037912;28;20462;-64
2022/10/17 06:03:28;;;;;;;7.97;7.00;;;15.80;1.00;;;;;;5037876;28;20438;-64
2022/10/17 06:05:55;;;;;;;7.03;5.37;;;15.70;1.00;;;;;;5037621;28;20461;-64
2022/10/17 06:08:23;;;;;;;6.10;5.60;;;15.70;1.00;;;;;;5037392;28;20441;-64
2022/10/17 06:10:51;;;;;;;14.00;6.53;;;15.70;1.00;;;;;;5037089;28;20466;-64
2022/10/17 06:13:18;;;;;;;8.27;6.20;;;15.70;1.00;;;;;;5037944;28;20467;-65
2022/10/17 06:15:49;;;;;;;12.53;6.37;;;15.60;1.00;;;;;;5037154;28;20494;-65
2022/10/17 06:18:16;;;;;;;8.63;5.83;;;15.60;1.00;;;;;;5038026;28;20463;-65
2022/10/17 06:20:43;;;;;;;9.07;5.20;;;15.70;1.00;;;;;;5038494;28;20473;-65
2022/10/17 06:23:10;;;;;;;9.67;6.13;;;15.70;1.00;;;;;;5056823;28;20463;-65
2022/10/17 06:25:40;;;;;;;10.00;6.57;;;15.70;1.70;;;;;;5057602;28;20465;-65
2022/10/17 06:28:11;;;;;;;7.63;6.90;;;15.80;1.00;;;;;;5056771;28;20466;-65
2022/10/17 06:30:39;;;;;;;10.50;5.90;;;15.80;1.00;;;;;;5056043;28;20466;-65
2022/10/17 06:33:07;;;;;;;6.67;6.00;;;15.90;1.00;;;;;;5057296;28;20796;-65
2022/10/17 06:35:34;;;;;;;7.77;6.87;;;15.90;99.90;;;;;;5056656;28;20444;-65
2022/10/17 06:38:03;;;;;;;6.37;5.70;;;15.90;99.90;;;;;;5057300;28;20440;-65
2022/10/17 06:40:31;;;;;;;6.87;6.23;;;15.90;1.00;;;;;;5057101;28;20448;-64
2022/10/17 06:42:59;;;;;;;6.67;5.60;;;16.00;99.90;;;;;;5055640;28;20498;-65
2022/10/17 06:45:26;;;;;;;9.60;5.60;;;16.10;99.90;;;;;;5054513;28;21178;-64
2022/10/17 06:47:54;;;;;;;6.20;5.30;;;16.10;1.00;;;;;;5053854;28;20907;-65
2022/10/17 06:50:22;;;;;;;8.33;5.80;;;16.20;99.90;;;;;;5053758;28;20466;-65
2022/10/17 06:52:51;;;;;;;6.40;5.80;;;16.10;99.90;;;;;;5053821;28;20472;-65
2022/10/17 06:55:21;;;;;;;8.63;5.63;;;16.20;1.00;;;;;;5054591;28;20690;-64
2022/10/17 06:57:54;;;;;;;5.60;5.03;;;16.20;1.00;;;;;;5054416;28;20437;-65
2022/10/17 07:00:22;;;;;;;6.50;5.03;;;16.30;99.90;;;;;;5055907;28;20876;-64
2022/10/17 07:02:50;;;;;;;14.50;6.00;;;16.30;99.90;;;;;;5056894;28;20495;-64
2022/10/17 07:05:18;;;;;;;8.80;6.43;;;16.30;99.90;;;;;;5054545;28;20469;-64
2022/10/17 07:07:47;;;;;;;6.70;5.40;;;16.40;78.70;;;;;;5055006;28;20501;-65
2022/10/17 07:10:14;;;;;;;7.60;5.60;;;16.40;29.70;;;;;;5055463;28;20443;-64
2022/10/17 07:12:46;;;;;;;8.93;5.80;;;16.50;1.00;;;;;;5054043;28;20922;-64
2022/10/17 07:15:13;;;;;;;6.13;5.10;;;16.60;1.00;;;;;;5053286;28;20486;-65
2022/10/17 07:17:42;;;;;;;10.53;6.70;;;16.60;1.00;;;;;;5054318;28;20476;-64
2022/10/17 07:20:10;;;;;;;7.00;5.17;;;16.60;99.90;;;;;;5054529;28;20462;-64
2022/10/17 07:22:39;;;;;;;8.27;5.73;;;16.70;99.90;;;;;;5055630;28;20466;-64
2022/10/17 07:25:09;;;;;;;6.23;5.00;;;16.80;99.90;;;;;;5055712;28;20452;-64
2022/10/17 07:27:39;;;;;;;7.63;5.70;;;16.90;99.90;;;;;;5056229;28;20464;-64
2022/10/17 07:30:08;;;;;;;7.90;5.30;;;17.10;99.90;;;;;;5060678;28;20458;-64
2022/10/17 07:32:35;;;;;;;8.03;5.47;;;17.30;99.90;;;;;;5059660;28;20466;-64
2022/10/17 07:35:07;;;;;;;6.27;5.67;;;17.40;1.00;;;;;;5060901;28;20730;-64
2022/10/17 07:37:37;;;;;;;7.27;5.30;;;17.40;1.00;;;;;;5060987;28;20505;-65
2022/10/17 07:40:10;;;;;;;6.90;5.20;;;17.50;1.00;;;;;;5060415;28;20466;-65
2022/10/17 07:42:41;;;;;;;8.23;5.60;;;17.40;1.00;;;;;;5060659;28;20457;-65
2022/10/17 07:45:09;;;;;;;5.90;4.73;;;17.40;1.00;;;;;;5060393;28;20580;-65
2022/10/17 07:47:36;;;;;;;7.63;5.50;;;17.40;1.00;;;;;;5060086;28;20436;-65
2022/10/17 07:50:04;;;;;;;5.67;5.17;;;17.40;1.00;;;;;;5059346;28;20469;-65
2022/10/17 07:52:34;;;;;;;5.20;4.77;;;17.40;1.00;;;;;;5059382;28;20655;-65
2022/10/17 07:55:01;;;;;;;5.77;5.20;;;17.50;1.00;;;;;;5059739;28;20458;-65
2022/10/17 07:57:30;;;;;;;5.87;4.83;;;17.50;1.00;;;;;;5059310;28;20461;-65
2022/10/17 07:59:57;;;;;;;7.40;5.20;;;17.50;1.00;;;;;;5059552;28;20436;-65
2022/10/17 08:02:26;;;;;;;9.03;4.87;;;17.60;1.00;;;;;;5059780;28;20466;-66
2022/10/17 08:04:53;;;;;;;6.83;5.30;;;17.70;1.00;;;;;;5059480;28;20496;-66
2022/10/17 08:07:21;;;;;;;8.63;5.67;;;17.80;1.00;;;;;;5060033;28;20436;-66
2022/10/17 08:09:49;;;;;;;11.30;5.20;;;17.90;1.00;;;;;;5060020;28;20458;-67
2022/10/17 08:12:16;;;;;;;7.20;5.20;;;18.00;1.00;;;;;;5059673;28;20469;-66
2022/10/17 08:14:46;;;;;;;5.57;5.07;;;18.10;1.00;;;;;;5059430;28;20863;-66
2022/10/17 08:17:16;;;;;;;6.37;5.13;;;18.30;1.00;;;;;;5060105;28;20895;-66
2022/10/17 08:19:44;;;;;;;5.70;5.10;;;18.40;1.00;;;;;;5059836;28;20462;-66
2022/10/17 08:22:11;;;;;;;5.97;5.37;;;18.40;1.00;;;;;;5059461;28;20437;-66
2022/10/17 08:24:41;;;;;;;8.30;5.70;;;18.80;1.00;;;;;;5058914;28;20468;-66
2022/10/17 08:27:11;;;;;;;7.10;5.37;;;19.10;1.00;;;;;;5058083;28;20497;-67
2022/10/17 08:29:39;;;;;;;6.60;4.70;;;19.20;1.00;;;;;;5059204;28;20469;-67
2022/10/17 08:32:09;;;;;;;6.23;5.10;;;19.30;1.00;;;;;;5059123;28;20437;-67
2022/10/17 08:34:36;;;;;;;8.00;5.00;;;19.40;99.90;;;;;;5059473;28;20429;-67
2022/10/17 08:37:03;;;;;;;6.30;5.07;;;19.60;1.00;;;;;;5059768;28;20756;-67
2022/10/17 08:39:30;;;;;;;6.47;4.63;;;19.70;99.90;;;;;;5058138;28;20459;-67
2022/10/17 08:42:11;;;;;;;7.07;5.00;;;19.60;99.90;;;;;;5058894;28;20437;-68
2022/10/17 08:44:50;;;;;;;9.77;4.97;;;19.80;99.90;;;;;;5058834;28;20528;-68
2022/10/17 08:47:26;;;;;;;6.20;4.83;;;20.00;99.90;;;;;;5059345;28;20436;-68
2022/10/17 08:49:59;;;;;;;4.87;4.40;;;20.30;99.90;;;;;;5058915;28;20468;-68
2022/10/17 08:52:36;;;;;;;6.20;5.33;;;20.50;99.90;;;;;;5058969;28;20535;-67
2022/10/17 08:55:14;;;;;;;4.40;3.90;;;20.70;99.90;;;;;;5059493;28;20454;-67
2022/10/17 08:57:41;;;;;;;5.43;4.47;;;20.90;99.90;;;;;;5058448;28;20560;-67
2022/10/17 09:00:17;;;;;;;6.03;4.90;;;21.10;99.90;;;;;;5058350;28;20462;-68
2022/10/17 09:02:57;;;;;;;6.50;4.63;;;21.40;99.90;;;;;;5059340;28;20440;-67
2022/10/17 09:05:36;;;;;;;4.67;4.23;;;21.40;99.90;;;;;;5058846;28;20465;-67
2022/10/17 09:08:16;;;;;;;6.40;3.70;;;21.40;99.90;;;;;;5058129;28;20720;-67
2022/10/17 09:10:59;;;;;;;6.13;4.40;;;21.10;99.90;;;;;;5057968;28;20561;-67
2022/10/17 09:13:53;;;;;;;5.60;5.10;;;20.90;99.90;;;;;;5058839;28;20468;-66
2022/10/17 09:16:37;;;;;;;5.13;4.63;;;21.10;99.90;;;;;;5057906;28;20496;-66
2022/10/17 09:19:11;;;;;;;4.80;4.40;;;21.50;99.90;;;;;;5058586;28;20472;-66
2022/10/17 09:21:47;;;;;;;6.43;4.33;;;21.70;99.90;;;;;;5058719;28;20462;-66
2022/10/17 09:24:19;;;;;;;5.23;4.73;;;21.80;99.90;;;;;;5058753;28;20461;-66
2022/10/17 09:26:46;;;;;;;8.33;4.97;;;22.00;99.90;;;;;;5058460;28;20581;-66
2022/10/17 09:29:21;;;;;;;5.10;3.93;;;22.50;99.90;;;;;;5058574;28;20508;-66
2022/10/17 09:31:56;;;;;;;9.20;4.40;;;23.20;99.90;;;;;;5058060;28;20457;-66
2022/10/17 09:34:31;;;;;;;7.60;4.43;;;23.60;99.90;;;;;;5058302;28;20890;-66
2022/10/17 09:36:59;;;;;;;7.00;4.27;;;23.50;99.90;;;;;;5058230;28;20457;-66
2022/10/17 09:39:30;;;;;;;5.60;4.33;;;22.80;99.90;;;;;;5058579;28;20719;-65
2022/10/17 09:42:06;;;;;;;6.53;5.10;;;22.50;99.90;;;;;;5056838;28;20466;-67
2022/10/17 09:44:39;;;;;;;5.27;4.23;;;22.50;99.90;;;;;;5057962;28;20515;-66
2022/10/17 09:47:19;;;;;;;4.87;4.37;;;22.50;99.90;;;;;;5058069;28;20450;-67
2022/10/17 09:49:48;;;;;;;4.60;4.20;;;22.50;99.90;;;;;;5058262;28;20433;-66
2022/10/17 09:52:17;;;;;;;8.10;4.50;;;22.40;99.90;;;;;;5057530;28;20481;-65
2022/10/17 09:54:51;;;;;;;6.30;4.30;;;22.20;99.90;;;;;;5058135;28;20734;-66
2022/10/17 09:57:20;;;;;;;5.83;4.10;;;21.90;99.90;;;;;;5057960;28;20483;-66
2022/10/17 09:59:55;;;;;;;10.20;3.73;;;21.70;99.90;;;;;;5057981;28;20589;-67
2022/10/17 10:02:25;;;;;;;5.07;4.33;;;21.60;99.90;;;;;;5056600;28;20470;-66
2022/10/17 10:04:57;;;;;;;4.60;4.20;;;21.40;99.90;;;;;;5056288;28;20487;-65
2022/10/17 10:07:25;;;;;;;7.67;5.33;;;21.20;99.90;;;;;;5057830;28;20445;-65
2022/10/17 10:09:55;;;;;;;7.67;5.33;;;21.20;99.90;;;;;;5057121;28;20558;-66
2022/10/17 10:12:25;;;;;;;7.07;4.67;;;21.10;99.90;;;;;;5055687;28;20510;-65
2022/10/17 10:14:57;;;;;;;6.13;4.50;;;20.90;99.90;;;;;;5057215;28;20460;-65
2022/10/17 10:17:42;;;;;;;6.87;5.33;;;20.90;99.90;;;;;;5057127;28;20488;-65
2022/10/17 10:20:30;;;;;;;13.20;5.07;;;20.90;99.90;;;;;;5055094;28;20945;-66
2022/10/17 10:23:13;;;;;;;8.57;4.37;;;20.80;99.90;;;;;;5056920;28;20741;-65
2022/10/17 10:25:52;;;;;;;5.17;4.67;;;20.70;99.90;;;;;;5057734;28;20489;-65
2022/10/17 10:28:21;;;;;;;8.20;4.87;;;20.70;99.90;;;;;;5057482;28;20895;-65
2022/10/17 10:30:51;;;;;;;6.90;4.40;;;20.80;99.90;;;;;;5056443;28;20813;-65
2022/10/17 10:33:20;;;;;;;4.70;4.17;;;20.90;99.90;;;;;;5057708;28;20466;-66
2022/10/17 10:35:57;;;;;;;5.07;4.57;;;20.90;99.90;;;;;;5055994;28;20449;-65
2022/10/17 10:38:29;;;;;;;5.90;4.53;;;20.90;99.90;;;;;;5057216;28;20457;-65
2022/10/17 10:41:02;;;;;;;11.13;5.47;;;20.90;99.90;;;;;;5056169;28;20560;-65
2022/10/17 10:43:35;;;;;;;6.70;4.40;;;20.90;99.90;;;;;;5057580;28;20758;-65
2022/10/17 10:46:05;;;;;;;6.87;4.93;;;21.10;99.90;;;;;;5056191;28;20490;-65
2022/10/17 10:48:35;;;;;;;6.03;5.10;;;21.10;99.90;;;;;;5056333;28;20477;-65
2022/10/17 10:51:16;;;;;;;5.73;4.40;;;21.00;99.90;;;;;;5057214;28;20471;-64
2022/10/17 10:53:47;;;;;;;6.00;4.70;;;20.90;99.90;;;;;;5057448;28;20462;-66
2022/10/17 10:56:25;;;;;;;7.87;5.10;;;20.70;99.90;;;;;;5055964;28;20899;-65
2022/10/17 10:58:55;;;;;;;7.63;4.70;;;20.70;99.90;;;;;;5036560;28;20454;-66
2022/10/17 11:01:40;;;;;;;5.60;4.43;;;20.80;99.90;;;;;;5044276;28;20887;-65
2022/10/17 11:04:21;;;;;;;7.53;4.50;;;20.90;99.90;;;;;;5059748;28;20564;-64
2022/10/17 11:06:55;;;;;;;7.70;4.80;;;21.20;99.90;;;;;;5061114;28;20516;-65
2022/10/17 11:09:34;;;;;;;5.60;4.10;;;21.10;99.90;;;;;;5061757;28;20488;-65
2022/10/17 11:12:07;;;;;;;6.80;5.43;;;21.10;99.90;;;;;;5060452;28;20468;-64
2022/10/17 11:14:44;;;;;;;5.60;4.23;;;21.10;99.90;;;;;;5059297;28;20494;-65
2022/10/17 11:17:21;;;;;;;5.20;4.47;;;21.20;99.90;;;;;;5059735;28;20506;-65
2022/10/17 11:20:01;;;;;;;7.20;4.20;;;21.30;99.90;;;;;;5059736;28;20440;-64
2022/10/17 11:22:37;;;;;;;8.30;4.87;;;21.40;99.90;;;;;;5060502;28;20458;-64
2022/10/17 11:25:08;;;;;;;9.50;4.70;;;21.20;99.90;;;;;;5059376;28;20468;-65
2022/10/17 11:27:35;;;;;;;7.30;5.27;;;21.20;99.90;;;;;;5060196;28;20552;-64
2022/10/17 11:30:05;;;;;;;7.10;4.63;;;21.20;99.90;;;;;;5051594;28;20440;-63
2022/10/17 11:32:39;;;;;;;5.33;4.53;;;21.10;99.90;;;;;;5056587;28;20488;-63
2022/10/17 11:35:14;;;;;;;10.77;4.60;;;21.10;99.90;;;;;;5058669;28;21070;-63
2022/10/17 11:37:48;;;;;;;5.97;4.50;;;21.10;99.90;;;;;;5059661;28;20432;-64
2022/10/17 11:40:18;;;;;;;7.57;4.97;;;21.10;99.90;;;;;;5058791;28;20871;-63
2022/10/17 11:42:53;;;;;;;8.47;5.40;;;21.10;99.90;;;;;;5059323;28;20432;-63
2022/10/17 11:45:23;;;;;;;7.47;4.10;;;21.10;99.90;;;;;;5060203;28;20460;-63
2022/10/17 11:47:54;;;;;;;6.20;5.10;;;21.10;99.90;;;;;;5058950;28;20548;-63
2022/10/17 11:50:27;;;;;;;7.03;5.33;;;21.20;99.90;;;;;;5057470;28;20470;-63
2022/10/17 11:53:00;;;;;;;5.77;4.23;;;21.10;99.90;;;;;;5055492;28;20891;-64
2022/10/17 11:55:33;;;;;;;5.17;4.40;;;21.10;99.90;;;;;;5055382;28;20539;-63
2022/10/17 11:58:14;;;;;;;7.00;4.50;;;21.00;99.90;;;;;;5056818;28;20436;-63
2022/10/17 12:00:55;;;;;;;5.43;3.90;;;21.00;99.90;;;;;;5055656;28;20474;-63
2022/10/17 12:03:50;;;;;;;8.00;5.20;;;21.00;99.90;;;;;;5058221;28;20560;-63
2022/10/17 12:06:29;;;;;;;5.20;4.20;;;21.00;99.90;;;;;;5057665;28;20807;-63
2022/10/17 12:09:07;;;;;;;5.67;4.30;;;21.00;99.90;;;;;;5058355;28;20772;-63
2022/10/17 12:11:49;;;;;;;7.53;5.20;;;21.20;99.90;;;;;;5059355;28;20462;-63
2022/10/17 12:14:43;;;;;;;5.27;4.77;;;21.30;99.90;;;;;;5056389;28;20551;-63
2022/10/17 12:17:34;;;;;;;6.20;5.37;;;21.10;99.90;;;;;;5057735;28;20723;-63
2022/10/17 12:20:41;;;;;;;8.63;4.77;;;21.10;99.90;;;;;;5057705;28;20437;-63
2022/10/17 12:23:39;;;;;;;9.80;5.10;;;21.00;99.90;;;;;;5056732;28;20444;-63
2022/10/17 12:26:27;;;;;;;10.70;4.97;;;21.10;99.90;;;;;;5013477;28;20462;-63
2022/10/17 12:28:55;;;;;;;5.63;4.93;;;21.20;99.90;;;;;;5054544;28;20775;-63
2022/10/17 12:31:26;;;;;;;8.00;5.10;;;21.20;99.90;;;;;;5058587;28;20461;-63
2022/10/17 12:33:55;;;;;;;6.70;5.00;;;21.20;99.90;;;;;;5059355;28;20763;-63
2022/10/17 12:36:46;;;;;;;5.63;5.00;;;21.20;99.90;;;;;;5059596;28;20494;-63
2022/10/17 12:39:53;;;;;;;5.43;4.73;;;21.20;99.90;;;;;;5059568;28;20545;-63
2022/10/17 12:42:36;;;;;;;5.40;4.90;;;21.00;99.90;;;;;;5058332;28;20750;-63
2022/10/17 12:45:25;;;;;;;5.40;4.90;;;20.80;99.90;;;;;;5039578;28;20842;-64
2022/10/17 12:47:52;;;;;;;6.57;5.10;;;20.80;99.90;;;;;;5038023;28;20499;-63
2022/10/17 12:50:56;;;;;;;7.93;4.70;;;20.80;99.90;;;;;;5054661;28;20734;-64
2022/10/17 12:53:31;;;;;;;6.83;5.80;;;20.80;99.90;;;;;;5058042;28;20462;-63
2022/10/17 12:56:00;;;;;;;8.47;4.90;;;20.80;99.90;;;;;;5055786;28;20462;-64
2022/10/17 12:58:33;;;;;;;6.50;4.77;;;20.80;99.90;;;;;;5056468;28;20440;-64
2022/10/17 13:01:01;;;;;;;5.27;4.73;;;20.70;99.90;;;;;;5055738;28;20936;-63
2022/10/17 13:03:32;;;;;;;7.60;5.60;;;20.70;99.90;;;;;;5055878;28;20489;-63
2022/10/17 13:06:03;;;;;;;7.33;5.70;;;20.60;99.90;;;;;;5054250;28;20957;-64
2022/10/17 13:08:38;;;;;;;5.23;4.60;;;20.60;99.90;;;;;;5056192;28;20462;-63
2022/10/17 13:11:10;;;;;;;8.07;5.43;;;20.70;99.90;;;;;;5055527;28;20465;-64
2022/10/17 13:13:42;;;;;;;6.07;4.97;;;20.70;99.90;;;;;;5055443;28;20445;-64
2022/10/17 13:16:28;;;;;;;9.40;5.10;;;20.60;99.90;;;;;;5055620;28;20456;-64